Time;durP1;ratioP1;P1;durP2;ratioP2;P2;SDS_P1;SDS_P2;PMS_P1;PMS_P2;Temp;Humidity;BMP_temperature;BMP_pressure;BME280_temperature;BME280_humidity;BME280_pressure;Samples;Min_cycle;Max_cycle;Signal;HPM_P1;HPM_P2
2022/09/01 00:02:09;;;;;;;8.77;7.23;;;;;;;-143.84;75.38;45066.22;5033458;28;20443;-77
2022/09/01 00:04:39;;;;;;;11.70;6.93;;;;;;;-143.84;74.98;45050.97;5033187;28;21231;-77
2022/09/01 00:07:07;;;;;;;12.40;8.57;;;;;;;-143.84;74.68;45031.94;5033180;28;20500;-77
2022/09/01 00:09:34;;;;;;;12.40;6.93;;;;;;;-143.84;74.44;45049.06;5032783;28;20439;-77
2022/09/01 00:12:02;;;;;;;8.93;7.27;;;;;;;-143.84;74.41;45043.34;5032763;28;20450;-77
2022/09/01 00:14:34;;;;;;;15.90;8.27;;;;;;;-143.84;74.18;45073.81;5032788;28;20478;-77
2022/09/01 00:17:04;;;;;;;18.33;7.80;;;;;;;-143.84;73.72;45085.25;5032578;28;20861;-77
2022/09/01 00:19:32;;;;;;;14.93;8.13;;;;;;;-143.84;73.36;45052.88;5032532;28;20513;-77
2022/09/01 00:21:59;;;;;;;15.67;8.07;;;;;;;-143.84;74.07;45031.94;5032293;28;20492;-78
2022/09/01 00:24:27;;;;;;;20.43;8.10;;;;;;;-143.84;73.58;45089.06;5032736;28;20579;-77
2022/09/01 00:26:55;;;;;;;19.63;8.37;;;;;;;-143.84;73.47;45031.94;5032752;28;20442;-77
2022/09/01 00:29:23;;;;;;;28.57;9.10;;;;;;;-143.84;73.17;45056.69;5031778;28;20561;-78
2022/09/01 00:31:52;;;;;;;11.07;8.17;;;;;;;-143.84;73.02;45121.44;5032622;28;20889;-77
2022/09/01 00:34:19;;;;;;;12.90;7.47;;;;;;;-143.84;73.08;45052.88;5032710;28;20478;-77
2022/09/01 00:36:46;;;;;;;14.63;8.07;;;;;;;-143.84;72.94;45064.31;5032662;28;20504;-77
2022/09/01 00:39:14;;;;;;;13.73;8.20;;;;;;;-143.84;73.16;45064.31;5032617;28;20781;-77
2022/09/01 00:41:43;;;;;;;16.07;9.00;;;;;;;-143.84;72.96;45068.13;5032604;28;20516;-77
2022/09/01 00:44:13;;;;;;;16.70;8.40;;;;;;;-143.84;72.93;45071.91;5032268;28;20508;-78
2022/09/01 00:46:43;;;;;;;16.37;8.20;;;;;;;-143.84;72.75;45054.78;5031852;28;20496;-77
2022/09/01 00:49:16;;;;;;;13.60;8.13;;;;;;;-143.84;72.83;45037.66;5032419;28;20485;-77
2022/09/01 00:51:55;;;;;;;18.70;8.80;;;;;;;-143.84;72.99;45068.13;5032630;28;20980;-77
2022/09/01 00:54:27;;;;;;;16.03;8.20;;;;;;;-143.84;73.59;45070.00;5032030;28;20525;-77
2022/09/01 00:56:55;;;;;;;12.30;7.63;;;;;;;-143.84;73.73;45071.91;5032658;28;20447;-77
2022/09/01 00:59:24;;;;;;;17.37;7.60;;;;;;;-143.84;74.03;45073.81;5032722;28;20461;-77
2022/09/01 01:01:52;;;;;;;15.43;7.87;;;;;;;-143.84;74.24;45052.88;5032433;28;20512;-76
2022/09/01 01:04:20;;;;;;;20.00;7.63;;;;;;;-143.84;74.31;45070.00;5031246;28;20450;-77
2022/09/01 01:06:57;;;;;;;13.30;7.53;;;;;;;-143.84;74.06;45083.34;5031369;28;20477;-76
2022/09/01 01:09:26;;;;;;;15.03;8.63;;;;;;;-143.84;74.45;45054.78;5031839;28;20439;-76
2022/09/01 01:11:56;;;;;;;12.67;8.27;;;;;;;-143.84;74.54;45071.91;5031473;28;21310;-76
2022/09/01 01:14:23;;;;;;;12.60;8.10;;;;;;;-143.84;74.65;45075.72;5031314;28;20917;-76
2022/09/01 01:16:50;;;;;;;16.07;7.80;;;;;;;-143.84;74.58;45068.13;5031073;28;20438;-76
2022/09/01 01:25:11;;;;;;;12.30;7.20;;;;;;;-143.84;75.44;45090.97;5031408;28;20426;-76
2022/09/01 01:27:39;;;;;;;14.90;7.07;;;;;;;-143.84;75.51;45062.41;5031443;28;20454;-76
2022/09/01 01:30:09;;;;;;;12.93;6.87;;;;;;;-143.84;75.55;45066.22;5031243;28;20439;-76
2022/09/01 01:32:41;;;;;;;13.53;6.83;;;;;;;-143.84;75.36;45052.88;5031215;28;20925;-76
2022/09/01 01:35:13;;;;;;;9.60;7.30;;;;;;;-143.84;75.65;45056.69;5031191;28;20575;-76
2022/09/01 01:37:47;;;;;;;9.77;7.10;;;;;;;-143.84;75.53;45098.56;5031179;28;20434;-76
2022/09/01 01:40:19;;;;;;;11.60;7.70;;;;;;;-143.84;75.65;45081.44;5030030;28;20442;-76
2022/09/01 01:42:49;;;;;;;10.73;6.67;;;;;;;-143.84;75.69;45089.06;5031232;28;20459;-76
2022/09/01 01:45:19;;;;;;;11.90;7.10;;;;;;;-143.84;75.50;45073.81;5030998;28;20442;-76
2022/09/01 01:47:52;;;;;;;9.73;6.90;;;;;;;-143.84;75.84;45052.88;5031077;28;20512;-76
2022/09/01 01:50:20;;;;;;;17.10;7.27;;;;;;;-143.84;75.78;45083.34;5030656;28;20450;-76
2022/09/01 01:52:47;;;;;;;10.17;7.43;;;;;;;-143.84;76.13;45079.53;5030554;28;20429;-76
2022/09/01 01:55:18;;;;;;;13.83;7.20;;;;;;;-143.84;76.09;45102.38;5030435;28;20473;-76
2022/09/01 01:57:48;;;;;;;13.30;7.23;;;;;;;-143.84;76.21;45102.38;5031039;28;21305;-76
2022/09/01 02:00:18;;;;;;;11.63;6.83;;;;;;;-143.84;75.91;45094.78;5030840;28;20459;-76
2022/09/01 02:02:51;;;;;;;11.33;7.60;;;;;;;-143.84;75.83;45079.53;5030866;28;20522;-76
2022/09/01 02:05:23;;;;;;;10.40;7.40;;;;;;;-143.84;75.65;45081.44;5030680;28;20520;-76
2022/09/01 02:07:55;;;;;;;13.40;7.73;;;;;;;-143.84;75.72;45092.88;5030955;28;20438;-76
2022/09/01 02:10:29;;;;;;;21.10;8.53;;;;;;;-143.84;75.91;45094.78;5030853;28;21161;-76
2022/09/01 02:13:03;;;;;;;8.47;7.67;;;;;;;-143.84;76.00;45102.38;5030562;28;20940;-76
2022/09/01 02:15:42;;;;;;;9.07;8.13;;;;;;;-143.84;76.13;45073.81;5030579;28;20487;-76
2022/09/01 02:18:09;;;;;;;15.87;8.20;;;;;;;-143.84;76.59;45075.72;5030846;28;20787;-79
2022/09/01 02:20:37;;;;;;;18.60;8.30;;;;;;;-143.84;76.65;45077.63;5030254;28;20442;-76
2022/09/01 02:23:09;;;;;;;11.13;7.60;;;;;;;-143.84;76.77;45075.72;5030399;28;20431;-76
2022/09/01 02:25:42;;;;;;;12.60;8.40;;;;;;;-143.84;77.12;45083.34;5030435;28;20451;-76
2022/09/01 02:28:14;;;;;;;9.60;7.37;;;;;;;-143.84;77.43;45071.91;5030121;28;20453;-78
2022/09/01 02:30:42;;;;;;;9.30;7.50;;;;;;;-143.84;77.40;45089.06;5022512;28;20513;-78
2022/09/01 02:33:09;;;;;;;13.13;8.47;;;;;;;-143.84;77.87;45056.69;5030417;28;20903;-78
2022/09/01 02:35:36;;;;;;;10.00;7.40;;;;;;;-143.84;77.74;45096.66;5029955;28;20493;-78
2022/09/01 02:38:04;;;;;;;12.83;7.93;;;;;;;-143.84;77.50;45073.81;5030051;28;20442;-76
2022/09/01 02:40:32;;;;;;;16.80;9.23;;;;;;;-143.84;77.66;45083.34;5030271;28;20477;-78
2022/09/01 02:43:01;;;;;;;10.03;8.30;;;;;;;-143.84;77.98;45085.25;5029894;28;20442;-78
2022/09/01 02:45:29;;;;;;;9.93;8.30;;;;;;;-143.84;78.01;45079.53;5030317;28;20501;-78
2022/09/01 02:47:56;;;;;;;12.33;7.53;;;;;;;-143.84;77.86;45081.44;5030191;28;20819;-78
2022/09/01 02:50:25;;;;;;;8.90;8.10;;;;;;;-143.84;77.99;45083.34;5029994;28;20496;-78
2022/09/01 02:52:53;;;;;;;11.90;7.83;;;;;;;-143.84;78.09;45087.16;5032253;28;20823;-78
2022/09/01 02:55:21;;;;;;;9.87;8.43;;;;;;;-143.84;78.08;45100.47;5033721;28;20481;-78
2022/09/01 02:57:54;;;;;;;12.57;8.57;;;;;;;-143.84;78.22;45117.63;5033993;28;20458;-78
2022/09/01 03:00:27;;;;;;;12.03;8.13;;;;;;;-143.84;78.07;45108.09;5032762;28;20525;-78
2022/09/01 03:02:56;;;;;;;11.37;8.30;;;;;;;-143.84;78.03;45087.16;5033678;28;20442;-78
2022/09/01 03:05:25;;;;;;;11.33;7.57;;;;;;;-143.84;77.95;45079.53;5017708;28;20521;-78
2022/09/01 03:07:55;;;;;;;18.13;9.40;;;;;;;-143.84;78.00;45096.66;5013564;28;20533;-78
2022/09/01 03:10:31;;;;;;;12.57;7.97;;;;;;;-143.84;78.04;45102.38;5013188;28;20526;-79
2022/09/01 03:13:00;;;;;;;18.10;8.10;;;;;;;-143.84;77.82;45104.28;5013549;28;20445;-79
2022/09/01 03:15:30;;;;;;;13.63;8.73;;;;;;;-143.84;77.93;45094.78;5013403;28;21476;-78
2022/09/01 03:17:59;;;;;;;16.57;8.17;;;;;;;-143.84;77.77;45073.81;5013145;28;20443;-79
2022/09/01 03:20:28;;;;;;;14.17;8.50;;;;;;;-143.84;77.48;45085.25;5013684;28;20531;-79
2022/09/01 03:22:58;;;;;;;11.43;7.70;;;;;;;-143.84;77.51;45096.66;5013704;28;20526;-78
2022/09/01 03:25:26;;;;;;;13.00;8.03;;;;;;;-143.84;77.23;45081.44;5010209;28;20456;-78
2022/09/01 03:27:53;;;;;;;7.90;7.00;;;;;;;-143.84;76.97;45144.28;5011948;28;20447;-79
2022/09/01 03:30:21;;;;;;;9.27;7.37;;;;;;;-143.84;77.18;45085.25;5013179;28;20447;-78
2022/09/01 03:32:50;;;;;;;14.00;7.13;;;;;;;-143.84;76.77;45077.63;5014905;28;20451;-78
2022/09/01 03:35:18;;;;;;;10.50;7.73;;;;;;;-143.84;76.49;45083.34;5033221;28;20581;-80
2022/09/01 03:37:45;;;;;;;11.30;7.63;;;;;;;-143.84;76.22;45090.97;5034201;28;20442;-76
2022/09/01 03:40:14;;;;;;;8.80;7.53;;;;;;;-143.84;76.44;45087.16;5033203;28;20447;-75
2022/09/01 03:42:42;;;;;;;17.67;8.43;;;;;;;-143.84;76.16;45064.31;5032834;28;21003;-76
2022/09/01 03:45:14;;;;;;;12.80;7.37;;;;;;;-143.84;76.14;45096.66;5033470;28;20451;-75
2022/09/01 03:47:43;;;;;;;23.27;7.17;;;;;;;-143.84;75.76;45083.34;5033309;28;20474;-76
2022/09/01 03:50:19;;;;;;;13.60;8.00;;;;;;;-143.84;75.61;45083.34;5033646;28;20439;-75
2022/09/01 03:52:48;;;;;;;16.13;7.30;;;;;;;-143.84;75.29;45066.22;5032234;28;20438;-76
2022/09/01 03:55:18;;;;;;;15.73;7.27;;;;;;;-143.84;75.06;45096.66;5032900;28;20485;-75
2022/09/01 03:57:46;;;;;;;7.43;6.83;;;;;;;-143.84;75.16;45077.63;5032536;28;21016;-75
2022/09/01 04:00:21;;;;;;;8.07;7.00;;;;;;;-143.84;74.95;45113.81;5032271;28;20541;-76
2022/09/01 04:02:52;;;;;;;10.03;8.17;;;;;;;-143.84;74.43;45073.81;5032372;28;20801;-76
2022/09/01 04:05:23;;;;;;;9.60;7.10;;;;;;;-143.84;74.08;45096.66;5032846;28;20998;-78
2022/09/01 04:07:51;;;;;;;8.60;7.43;;;;;;;-143.84;74.18;45068.13;5033013;28;20454;-79
2022/09/01 04:10:19;;;;;;;11.50;7.63;;;;;;;-143.84;73.81;45081.44;5033601;28;20474;-80
2022/09/01 04:12:46;;;;;;;13.50;6.70;;;;;;;-143.84;73.35;45094.78;5034460;28;20438;-80
2022/09/01 04:15:16;;;;;;;24.43;7.37;;;;;;;-143.84;73.09;45073.81;5033286;28;20478;-80
2022/09/01 04:20:38;;;;;;;9.43;6.20;;;;;;;-143.84;72.56;45098.56;5033635;28;20517;-80
2022/09/01 04:23:09;;;;;;;16.77;7.00;;;;;;;-143.84;72.65;45068.13;5033728;28;20877;-80
2022/09/01 04:25:37;;;;;;;10.80;6.77;;;;;;;-143.84;71.83;45094.78;5033933;28;20462;-80
2022/09/01 04:28:13;;;;;;;9.47;6.67;;;;;;;-143.84;71.84;45106.19;5033481;28;20886;-80
2022/09/01 04:30:41;;;;;;;8.63;6.87;;;;;;;-143.84;71.37;45064.31;5033535;28;21021;-80
2022/09/01 04:33:09;;;;;;;7.93;6.37;;;;;;;-143.84;71.58;45073.81;5032912;28;20975;-80
2022/09/01 04:35:40;;;;;;;14.57;7.10;;;;;;;-143.84;71.40;45075.72;5033376;28;20482;-80
2022/09/01 04:38:07;;;;;;;7.73;7.00;;;;;;;-143.84;71.08;45087.16;5033470;28;20492;-78
2022/09/01 04:40:38;;;;;;;9.50;6.33;;;;;;;-143.84;70.81;45094.78;5032950;28;20442;-78
2022/09/01 04:43:05;;;;;;;10.57;6.40;;;;;;;-143.84;70.46;45087.16;5033200;28;20493;-78
2022/09/01 04:45:35;;;;;;;7.70;6.90;;;;;;;-143.84;70.08;45064.31;5033319;28;20766;-78
2022/09/01 04:48:02;;;;;;;9.20;6.80;;;;;;;-143.84;69.13;45062.41;5032977;28;20450;-78
2022/09/01 04:50:31;;;;;;;13.73;6.60;;;;;;;-143.84;68.36;45077.63;5032915;28;20917;-78
2022/09/01 04:53:00;;;;;;;8.37;6.20;;;;;;;-143.84;67.35;45077.63;5032732;28;20837;-78
2022/09/01 04:55:29;;;;;;;9.20;5.93;;;;;;;-143.84;65.87;45073.81;5032510;28;21046;-79
2022/09/01 04:57:58;;;;;;;12.23;6.27;;;;;;;-143.84;64.46;45071.91;5032585;28;20465;-77
2022/09/01 05:00:30;;;;;;;11.53;5.73;;;;;;;-143.84;62.93;45054.78;5032245;28;21130;-79
2022/09/01 05:03:03;;;;;;;8.03;5.17;;;;;;;-143.84;61.23;45050.97;5032550;28;20486;-80
2022/09/01 05:05:41;;;;;;;7.00;5.33;;;;;;;-143.84;59.39;45070.00;5032588;28;20460;-80
2022/09/01 05:08:13;;;;;;;6.93;5.50;;;;;;;-143.84;57.78;45043.34;5032511;28;20438;-80
2022/09/01 05:10:43;;;;;;;10.10;5.40;;;;;;;-143.84;56.84;45049.06;5032649;28;20461;-80
2022/09/01 05:13:12;;;;;;;11.73;6.33;;;;;;;-143.84;55.93;45010.97;5032428;28;20505;-80
2022/09/01 05:15:45;;;;;;;8.93;5.63;;;;;;;-143.84;55.05;45018.59;5031944;28;20478;-80
2022/09/01 05:18:14;;;;;;;13.80;5.40;;;;;;;-143.84;54.46;45007.19;5032281;28;20528;-77
2022/09/01 05:20:43;;;;;;;7.93;5.27;;;;;;;-143.84;53.78;45033.84;5032346;28;20457;-77
2022/09/01 05:23:14;;;;;;;21.00;6.17;;;;;;;-143.84;52.52;45024.31;5031674;28;20835;-78
2022/09/01 05:25:43;;;;;;;13.60;5.50;;;;;;;-143.84;51.56;45020.50;5032065;28;20505;-77
2022/09/01 05:28:11;;;;;;;16.53;8.20;;;;;;;-143.84;51.58;45018.59;5031961;28;20450;-79
2022/09/01 05:30:40;;;;;;;20.03;7.60;;;;;;;-143.84;50.29;45012.88;5031980;28;20531;-79
2022/09/01 05:33:10;;;;;;;17.00;10.30;;;;;;;-143.84;49.84;45001.47;5031773;28;20447;-79
2022/09/01 05:35:43;;;;;;;15.73;6.70;;;;;;;-143.84;49.67;45003.38;5031450;28;20481;-79
2022/09/01 05:38:14;;;;;;;20.03;7.47;;;;;;;-143.84;47.61;44995.75;5031268;28;20504;-79
2022/09/01 05:40:43;;;;;;;12.40;7.30;;;;;;;-143.84;47.60;45030.03;5031422;28;20443;-79
2022/09/01 05:43:12;;;;;;;20.10;7.37;;;;;;;-143.84;47.46;44999.56;5031955;28;21185;-79
2022/09/01 05:45:44;;;;;;;20.33;5.10;;;;;;;-143.84;47.26;44980.53;5031394;28;20475;-79
2022/09/01 05:48:16;;;;;;;11.93;6.87;;;;;;;-143.84;46.21;44993.84;5031314;28;20435;-76
2022/09/01 05:50:44;;;;;;;17.23;8.43;;;;;;;-143.84;46.32;44963.38;5031398;28;20435;-79
2022/09/01 05:53:16;;;;;;;11.60;6.87;;;;;;;-143.84;45.47;44969.09;5031081;28;21166;-79
2022/09/01 05:55:45;;;;;;;17.83;8.17;;;;;;;-143.84;45.35;44991.94;5030270;28;21205;-77
2022/09/01 05:58:13;;;;;;;13.63;9.17;;;;;;;-143.84;45.04;44976.72;5030654;28;20458;-78
2022/09/01 06:00:41;;;;;;;10.63;5.87;;;;;;;-143.84;44.22;44990.03;5030801;28;20477;-79
2022/09/01 06:03:10;;;;;;;12.53;6.10;;;;;;;-143.84;44.15;44980.53;5031018;28;20841;-79
2022/09/01 06:05:38;;;;;;;6.87;4.90;;;;;;;-143.84;44.07;44969.09;5031359;28;20446;-79
2022/09/01 06:08:09;;;;;;;5.60;5.07;;;;;;;-143.84;43.61;44976.72;5030889;28;20435;-77
2022/09/01 06:10:40;;;;;;;8.67;4.70;;;;;;;-143.84;43.96;44976.72;5030847;28;20501;-77
2022/09/01 06:13:08;;;;;;;10.57;7.13;;;;;;;-143.84;43.34;44948.16;5030312;28;20496;-76
2022/09/01 06:15:38;;;;;;;9.30;5.80;;;;;;;-143.84;42.54;44963.38;5030397;28;20486;-77
2022/09/01 06:18:08;;;;;;;9.37;5.57;;;;;;;-143.84;42.09;44951.97;5030515;28;20471;-76
2022/09/01 06:20:39;;;;;;;8.40;5.53;;;;;;;-143.84;41.82;44946.25;5030543;28;21032;-76
2022/09/01 06:23:06;;;;;;;11.60;5.60;;;;;;;-143.84;41.64;44919.59;5030687;28;20457;-77
2022/09/01 06:25:38;;;;;;;8.23;4.90;;;;;;;-143.84;41.32;44927.19;5030733;28;20936;-76
2022/09/01 06:28:07;;;;;;;8.17;5.10;;;;;;;-143.84;40.42;44923.41;5036420;28;20454;-76
2022/09/01 06:30:35;;;;;;;10.53;4.60;;;;;;;-143.84;41.20;44906.25;5018894;28;20450;-76
2022/09/01 06:33:14;;;;;;;11.20;5.13;;;;;;;-143.84;41.06;44900.53;5037201;28;20534;-77
2022/09/01 06:35:43;;;;;;;6.40;4.50;;;;;;;-143.84;40.31;44932.91;5036590;28;20465;-76
2022/09/01 06:38:12;;;;;;;11.77;4.53;;;;;;;-143.84;40.04;44923.41;5036840;28;20442;-76
2022/09/01 06:40:41;;;;;;;7.33;4.87;;;;;;;-143.84;39.98;44902.44;5036679;28;20442;-76
2022/09/01 06:43:11;;;;;;;7.77;5.27;;;;;;;-143.84;40.12;44951.97;5036733;28;20439;-76
2022/09/01 06:45:42;;;;;;;7.83;4.50;;;;;;;-143.84;40.14;44931.00;5037018;28;20516;-76
2022/09/01 06:48:15;;;;;;;10.43;4.93;;;;;;;-143.84;39.82;44891.03;5036750;28;20492;-76
2022/09/01 06:50:42;;;;;;;7.43;4.77;;;;;;;-143.84;39.26;44921.50;5036823;28;20442;-76
2022/09/01 06:53:12;;;;;;;8.60;5.20;;;;;;;-143.84;39.87;44923.41;5037271;28;20528;-77
2022/09/01 06:55:42;;;;;;;9.43;4.80;;;;;;;-143.84;40.06;44915.78;5036710;28;20498;-76
2022/09/01 06:58:14;;;;;;;9.33;5.20;;;;;;;-143.84;39.76;44910.06;5037037;28;20460;-76
2022/09/01 07:00:43;;;;;;;7.90;4.83;;;;;;;-143.84;39.57;44904.34;5037079;28;20447;-77
2022/09/01 07:03:12;;;;;;;7.70;5.30;;;;;;;-143.84;39.77;44938.63;5036841;28;20442;-76
2022/09/01 07:05:41;;;;;;;7.40;5.27;;;;;;;-143.84;39.50;44913.88;5037599;28;20450;-76
2022/09/01 07:08:09;;;;;;;11.80;5.30;;;;;;;-143.84;39.12;44906.25;5037433;28;20450;-77
2022/09/01 07:10:44;;;;;;;9.77;5.40;;;;;;;-143.84;38.69;44879.59;5033741;28;20528;-76
2022/09/01 07:13:18;;;;;;;8.10;5.47;;;;;;;-143.84;38.12;44911.97;5036092;28;20436;-76
2022/09/01 07:15:48;;;;;;;7.80;5.67;;;;;;;-143.84;37.93;44889.13;5036173;28;20925;-76
2022/09/01 07:18:17;;;;;;;7.30;5.40;;;;;;;-143.84;38.81;44881.50;5035812;28;20450;-76
2022/09/01 07:20:47;;;;;;;8.70;5.67;;;;;;;-143.84;38.59;44873.88;5036315;28;20438;-77
2022/09/01 07:23:16;;;;;;;8.23;4.80;;;;;;;-143.84;37.70;44868.19;5036737;28;20452;-77
2022/09/01 07:25:48;;;;;;;7.23;4.70;;;;;;;-143.84;38.56;44898.66;5036682;28;20469;-76
2022/09/01 07:28:17;;;;;;;7.23;4.53;;;;;;;-143.84;37.35;44879.59;5035199;28;20524;-76
2022/09/01 07:30:47;;;;;;;7.53;5.00;;;;;;;-143.84;38.10;44879.59;5036163;28;20516;-76
2022/09/01 07:33:19;;;;;;;8.00;5.13;;;;;;;-143.84;37.66;44866.28;5036124;28;20524;-76
2022/09/01 07:35:48;;;;;;;8.70;5.33;;;;;;;-143.84;37.44;44864.38;5036005;28;20482;-76
2022/09/01 07:38:18;;;;;;;10.43;4.40;;;;;;;-143.84;37.81;44843.44;5035708;28;20435;-77
2022/09/01 07:40:51;;;;;;;7.73;5.27;;;;;;;-143.84;37.27;44851.03;5033791;28;20430;-72
2022/09/01 07:43:23;;;;;;;9.40;5.53;;;;;;;-143.84;37.28;44862.47;5030906;28;20446;-72
2022/09/01 07:45:54;;;;;;;7.10;4.93;;;;;;;-143.84;36.16;44852.94;5031653;28;20561;-72
2022/09/01 07:48:24;;;;;;;7.97;5.07;;;;;;;-143.84;36.56;44868.19;5031466;28;20439;-72
2022/09/01 07:50:54;;;;;;;10.03;4.83;;;;;;;-143.84;37.18;44881.50;5030461;28;20533;-72
2022/09/01 07:53:23;;;;;;;7.63;4.93;;;;;;;-143.84;36.56;44862.47;5030115;28;20548;-72
2022/09/01 07:55:54;;;;;;;16.53;5.20;;;;;;;-143.84;36.84;44860.56;5031323;28;20873;-72
2022/09/01 07:58:23;;;;;;;7.40;5.63;;;;;;;-143.84;36.70;44849.13;5030080;28;20466;-72
2022/09/01 08:00:52;;;;;;;13.33;5.47;;;;;;;-143.84;36.77;44849.13;5030378;28;20508;-72
2022/09/01 08:03:21;;;;;;;6.80;4.83;;;;;;;-143.84;36.08;44828.19;5030895;28;20443;-72
2022/09/01 08:05:52;;;;;;;10.70;5.23;;;;;;;-143.84;37.30;44854.84;5031302;28;20464;-72
2022/09/01 08:08:19;;;;;;;11.20;4.90;;;;;;;-143.84;36.13;44860.56;5031104;28;21311;-72
2022/09/01 08:10:47;;;;;;;5.50;4.40;;;;;;;-143.84;37.13;44852.94;5031258;28;20447;-72
2022/09/01 08:13:18;;;;;;;8.43;4.73;;;;;;;-143.84;36.91;44847.22;5030394;28;20446;-73
2022/09/01 08:15:45;;;;;;;6.73;5.00;;;;;;;-143.84;36.04;44847.22;5027600;28;20475;-72
2022/09/01 08:18:13;;;;;;;6.70;4.90;;;;;;;-143.84;36.37;44910.06;5031542;28;20509;-72
2022/09/01 08:20:44;;;;;;;10.80;4.60;;;;;;;-143.84;35.87;44830.09;5031993;28;20431;-73
2022/09/01 08:23:12;;;;;;;10.20;5.40;;;;;;;-143.84;35.65;44828.19;5031171;28;20442;-73
2022/09/01 08:25:40;;;;;;;15.00;5.37;;;;;;;-143.84;36.06;44892.94;5031267;28;20439;-73
2022/09/01 08:28:08;;;;;;;9.23;5.03;;;;;;;-143.84;35.81;44847.22;5031223;28;20520;-72
2022/09/01 08:30:39;;;;;;;9.03;5.17;;;;;;;-143.84;36.48;44839.63;5031760;28;20446;-72
2022/09/01 08:33:06;;;;;;;8.27;5.37;;;;;;;-143.84;35.78;44860.56;5031698;28;20447;-73
2022/09/01 08:35:34;;;;;;;8.03;4.97;;;;;;;-143.84;35.86;44854.84;5031365;28;20980;-73
2022/09/01 08:38:01;;;;;;;8.43;5.17;;;;;;;-143.84;36.09;44841.53;5031168;28;20466;-74
2022/09/01 08:40:29;;;;;;;5.87;5.03;;;;;;;-143.84;36.02;44856.75;5022055;28;21024;-73
2022/09/01 08:43:07;;;;;;;8.93;4.60;;;;;;;-143.84;36.87;44875.78;5010680;28;20929;-73
2022/09/01 08:45:42;;;;;;;9.50;5.93;;;;;;;-143.84;36.30;44881.50;5011716;28;20486;-73
2022/09/01 08:48:16;;;;;;;17.83;6.10;;;;;;;-143.84;36.20;44856.75;5011812;28;20516;-73
2022/09/01 08:50:45;;;;;;;9.33;5.80;;;;;;;-143.84;36.66;44860.56;5010702;28;20455;-73
2022/09/01 08:53:22;;;;;;;14.80;5.20;;;;;;;-143.84;36.89;44870.09;5020773;28;20529;-73
2022/09/01 08:55:55;;;;;;;9.77;5.67;;;;;;;-143.84;36.24;44820.56;5031496;28;20516;-73
2022/09/01 08:58:22;;;;;;;9.80;5.10;;;;;;;-143.84;35.90;44841.53;5035203;28;20465;-73
2022/09/01 09:00:59;;;;;;;10.27;5.60;;;;;;;-143.84;35.50;44818.66;5031443;28;20447;-73
2022/09/01 09:03:36;;;;;;;7.33;5.23;;;;;;;-143.84;35.78;44841.53;5031421;28;20447;-73
2022/09/01 09:06:13;;;;;;;8.77;5.17;;;;;;;-143.84;35.68;44851.03;5031780;28;20465;-74
2022/09/01 09:08:59;;;;;;;14.03;5.60;;;;;;;-143.84;35.76;44847.22;5036577;28;20834;-74
2022/09/01 09:11:59;;;;;;;8.37;5.20;;;;;;;-143.84;36.40;44847.22;5028690;28;20453;-74
2022/09/01 09:14:42;;;;;;;9.03;5.80;;;;;;;-143.84;35.93;44837.72;5029774;28;20459;-74
2022/09/01 09:17:13;;;;;;;14.07;6.10;;;;;;;-143.84;36.10;44839.63;5029319;28;20844;-73
2022/09/01 09:19:42;;;;;;;10.23;5.20;;;;;;;-143.84;35.90;44860.56;5029814;28;20446;-73
2022/09/01 09:22:11;;;;;;;16.23;5.30;;;;;;;-143.84;36.30;44818.66;5029912;28;20458;-74
2022/09/01 09:24:49;;;;;;;10.80;5.27;;;;;;;-143.84;35.84;44887.22;5029268;28;20536;-73
2022/09/01 09:27:19;;;;;;;11.57;5.77;;;;;;;-143.84;36.42;44864.38;5029698;28;20552;-74
2022/09/01 09:29:49;;;;;;;10.53;5.47;;;;;;;-143.84;36.53;44849.13;5025815;28;20451;-74
2022/09/01 09:32:19;;;;;;;7.50;6.03;;;;;;;-143.84;36.06;44826.28;5029219;28;20461;-74
2022/09/01 09:34:47;;;;;;;12.43;6.30;;;;;;;-143.84;36.14;44845.31;5029066;28;20458;-74
2022/09/01 09:37:22;;;;;;;13.00;5.70;;;;;;;-143.84;36.55;44858.66;5025504;28;20512;-74
2022/09/01 09:40:09;;;;;;;15.27;6.43;;;;;;;-143.84;36.82;44841.53;5026308;28;20467;-74
2022/09/01 09:42:40;;;;;;;10.40;5.63;;;;;;;-143.84;36.22;44849.13;5028916;28;20446;-74
2022/09/01 09:45:23;;;;;;;10.10;6.27;;;;;;;-143.84;36.50;44858.66;5028564;28;21258;-74
2022/09/01 09:47:53;;;;;;;15.77;6.00;;;;;;;-143.84;36.58;44851.03;5027064;28;20465;-74
2022/09/01 09:50:25;;;;;;;9.90;5.20;;;;;;;-143.84;37.07;44862.47;5028241;28;20482;-74
2022/09/01 09:53:00;;;;;;;10.23;5.80;;;;;;;-143.84;36.85;44851.03;5027938;28;20451;-73
2022/09/01 09:55:30;;;;;;;9.70;5.47;;;;;;;-143.84;37.41;44854.84;5028280;28;20473;-74
2022/09/01 09:58:00;;;;;;;17.17;6.80;;;;;;;-143.84;37.33;44852.94;5028613;28;20490;-73
2022/09/01 10:00:29;;;;;;;7.60;5.90;;;;;;;-143.84;37.30;44833.91;5028288;28;20442;-73
2022/09/01 10:03:01;;;;;;;9.37;5.57;;;;;;;-143.84;36.76;44832.00;5027611;28;20462;-73
2022/09/01 10:05:39;;;;;;;11.70;6.03;;;;;;;-143.84;37.44;44868.19;5028300;28;20473;-74
2022/09/01 10:08:10;;;;;;;8.20;5.30;;;;;;;-143.84;37.61;44847.22;5030588;28;20463;-73
2022/09/01 10:10:43;;;;;;;9.40;5.50;;;;;;;-143.84;37.84;44885.31;5027800;28;20457;-74
2022/09/01 10:13:12;;;;;;;14.60;5.77;;;;;;;-143.84;38.34;44858.66;5028497;28;20454;-74
2022/09/01 10:15:43;;;;;;;9.03;6.07;;;;;;;-143.84;38.14;44862.47;5026787;28;20466;-73
2022/09/01 10:18:17;;;;;;;6.87;5.10;;;;;;;-143.84;39.04;44873.88;5028505;28;21015;-73
2022/09/01 10:20:54;;;;;;;12.50;6.30;;;;;;;-143.84;39.71;44870.09;5028032;28;20481;-74
2022/09/01 10:23:22;;;;;;;10.93;5.67;;;;;;;-143.84;40.37;44879.59;5028096;28;20454;-73
2022/09/01 10:25:52;;;;;;;10.40;5.60;;;;;;;-143.84;41.01;44873.88;5028104;28;20459;-73
2022/09/01 10:28:23;;;;;;;14.27;5.17;;;;;;;-143.84;40.40;44877.69;5025724;28;20520;-73
2022/09/01 10:30:53;;;;;;;12.77;5.17;;;;;;;-143.84;40.10;44852.94;5028181;28;20548;-74
2022/09/01 10:33:22;;;;;;;12.73;5.83;;;;;;;-143.84;41.34;44873.88;5028023;28;20461;-73
2022/09/01 10:35:52;;;;;;;10.80;5.60;;;;;;;-143.84;42.73;44875.78;5027963;28;20469;-73
2022/09/01 10:38:22;;;;;;;12.53;5.60;;;;;;;-143.84;44.10;44870.09;5025001;28;20482;-73
2022/09/01 10:41:05;;;;;;;7.27;5.33;;;;;;;-143.84;47.33;44868.19;5027242;28;20463;-73
2022/09/01 10:43:41;;;;;;;12.80;5.67;;;;;;;-143.84;46.58;44891.03;5027195;28;21026;-73
2022/09/01 10:46:18;;;;;;;8.93;6.30;;;;;;;-143.84;46.41;44883.41;5025038;28;20811;-72
2022/09/01 10:48:49;;;;;;;60.10;14.53;;;;;;;-143.84;47.80;44891.03;5014657;28;20458;-73
2022/09/01 10:51:41;;;;;;;18.97;7.70;;;;;;;-143.84;46.37;44870.09;5010192;28;20448;-73
2022/09/01 10:54:09;;;;;;;21.70;8.10;;;;;;;-143.84;48.23;44889.13;5027713;28;21007;-73
2022/09/01 10:56:43;;;;;;;11.70;6.20;;;;;;;-143.84;48.72;44881.50;5024368;28;20880;-73
2022/09/01 10:59:24;;;;;;;9.57;5.47;;;;;;;-143.84;48.11;44902.44;5030351;28;21172;-73
2022/09/01 11:02:16;;;;;;;12.10;6.03;;;;;;;-143.84;47.58;44875.78;5027621;28;20482;-73
2022/09/01 11:05:14;;;;;;;8.33;6.07;;;;;;;-143.84;47.87;44887.22;5030097;28;20526;-73
2022/09/01 11:07:43;;;;;;;10.30;6.07;;;;;;;-143.84;47.88;44864.38;5031031;28;20450;-74
2022/09/01 11:10:31;;;;;;;10.27;6.20;;;;;;;-143.84;48.08;44900.53;5033425;28;20960;-74
2022/09/01 11:13:34;;;;;;;12.27;6.00;;;;;;;-143.84;46.99;44891.03;5035956;28;20539;-74
2022/09/01 11:16:28;;;;;;;8.03;5.40;;;;;;;-143.84;46.47;44904.34;5034704;28;21347;-74
2022/09/01 11:18:58;;;;;;;8.83;6.00;;;;;;;-143.84;45.34;44900.53;5040195;28;20477;-74
2022/09/01 11:21:29;;;;;;;10.10;5.27;;;;;;;-143.84;45.26;44885.31;5045136;28;20454;-74
2022/09/01 11:24:29;;;;;;;12.27;6.20;;;;;;;-143.84;45.31;44906.25;5043274;28;20976;-74
2022/09/01 11:30:21;;;;;;;12.67;6.50;;;;;;;-143.84;48.76;44870.09;5048474;28;20495;-73
2022/09/01 11:32:53;;;;;;;17.13;7.03;;;;;;;-143.84;50.00;44929.09;5033256;28;20533;-73
2022/09/01 11:35:23;;;;;;;16.30;6.87;;;;;;;-143.84;50.22;44911.97;5031311;28;20510;-74
2022/09/01 11:37:56;;;;;;;8.53;6.33;;;;;;;-143.84;51.90;44900.53;5031297;28;20501;-74
2022/09/01 11:40:26;;;;;;;13.57;7.60;;;;;;;-143.84;52.76;44938.63;5031277;28;20496;-73
2022/09/01 11:42:57;;;;;;;11.97;6.43;;;;;;;-143.84;54.00;44917.69;5030881;28;20458;-73